createdAt,value
2018-10-17T02:17:31.108Z,17.33
2018-10-17T02:19:37.072Z,14.90
2018-10-17T02:21:41.332Z,16.73
2018-10-17T02:23:45.631Z,17.07
2018-10-17T02:25:50.059Z,17.57
2018-10-17T02:27:55.395Z,16.23
2018-10-17T02:29:59.741Z,18.30
2018-10-17T02:32:05.839Z,15.93
2018-10-17T02:34:11.037Z,17.50
2018-10-17T02:36:16.028Z,17.07
2018-10-17T02:38:20.589Z,19.47
2018-10-17T02:40:24.951Z,21.27
2018-10-17T02:42:29.312Z,20.83
2018-10-17T02:44:38.557Z,21.83
2018-10-17T02:46:43.035Z,19.40
2018-10-17T02:48:47.476Z,22.83
2018-10-17T02:50:53.139Z,21.23
2018-10-17T02:52:57.649Z,20.63
2018-10-17T02:55:03.314Z,19.87
2018-10-17T02:57:14.958Z,24.07
2018-10-17T02:59:20.020Z,20.50
2018-10-17T03:01:24.399Z,21.37
2018-10-17T03:03:29.624Z,25.03
2018-10-17T03:05:34.499Z,24.77
2018-10-17T03:07:39.342Z,27.47
2018-10-17T03:09:44.832Z,25.30
2018-10-17T03:11:49.955Z,26.00
2018-10-17T03:13:54.544Z,25.57
2018-10-17T03:15:59.740Z,24.00
2018-10-17T03:18:10.063Z,25.40
2018-10-17T03:20:14.725Z,25.20
2018-10-17T03:22:20.239Z,22.53
2018-10-17T03:24:24.910Z,22.47
2018-10-17T03:26:29.366Z,21.63
2018-10-17T03:28:36.013Z,24.67
2018-10-17T03:30:41.934Z,25.70
2018-10-17T03:32:48.543Z,25.53
2018-10-17T03:34:56.997Z,27.50
2018-10-17T03:37:01.979Z,23.37
2018-10-17T03:39:09.768Z,24.43
2018-10-17T03:41:14.372Z,26.00
2018-10-17T03:43:19.064Z,24.97
2018-10-17T03:45:26.644Z,22.73
2018-10-17T03:47:30.889Z,29.33
2018-10-17T03:49:35.321Z,30.43
2018-10-17T03:51:39.870Z,24.37
2018-10-17T03:53:44.885Z,26.73
2018-10-17T03:55:49.649Z,25.43
2018-10-17T03:57:53.948Z,26.33
2018-10-17T03:59:58.769Z,24.83
2018-10-17T04:02:03.544Z,24.70
2018-10-17T04:04:08.252Z,26.00
2018-10-17T04:06:12.827Z,30.23
2018-10-17T04:08:18.385Z,31.83
2018-10-17T04:10:23.717Z,27.80
2018-10-17T04:12:28.968Z,24.97
2018-10-17T04:14:34.224Z,29.00
2018-10-17T04:16:38.736Z,26.73
2018-10-17T04:18:45.049Z,28.30
2018-10-17T04:20:50.197Z,25.80
2018-10-17T04:22:58.269Z,27.50
2018-10-17T04:25:06.446Z,28.07
2018-10-17T04:27:12.475Z,27.37
2018-10-17T04:29:18.081Z,27.83
2018-10-17T04:31:23.036Z,29.33
2018-10-17T04:33:27.630Z,30.40
2018-10-17T04:35:32.127Z,28.80
2018-10-17T04:37:37.161Z,27.70
2018-10-17T04:39:46.778Z,25.87
2018-10-17T04:41:56.522Z,26.67
2018-10-17T04:44:04.323Z,26.97
2018-10-17T04:46:09.799Z,30.43
2018-10-17T04:48:22.216Z,28.97
2018-10-17T04:50:30.284Z,28.53
2018-10-17T04:52:35.010Z,25.40
2018-10-17T04:54:41.491Z,25.37
2018-10-17T04:56:47.177Z,26.57
2018-10-17T04:58:51.844Z,26.30
2018-10-17T05:00:59.286Z,27.03
2018-10-17T05:03:12.441Z,28.60
2018-10-17T05:05:18.811Z,27.23
2018-10-17T05:07:29.565Z,37.10
2018-10-17T05:09:38.850Z,43.23
2018-10-17T05:11:46.580Z,42.40
2018-10-17T05:13:53.504Z,43.10
2018-10-17T05:16:00.001Z,35.60
2018-10-17T05:18:04.572Z,39.40
2018-10-17T05:20:11.272Z,38.27
2018-10-17T05:22:16.133Z,36.33
2018-10-17T05:24:28.991Z,40.63
2018-10-17T05:26:33.758Z,30.00
2018-10-17T05:28:39.620Z,36.30
2018-10-17T05:30:46.784Z,30.43
2018-10-17T05:32:54.209Z,33.47
2018-10-17T05:35:00.150Z,27.43
2018-10-17T05:37:06.327Z,28.07
2018-10-17T05:39:11.880Z,28.40
2018-10-17T05:41:23.237Z,31.80
2018-10-17T05:43:29.083Z,29.33
2018-10-17T05:45:39.707Z,27.60
2018-10-17T05:47:44.717Z,27.60
2018-10-17T05:49:49.716Z,34.57
2018-10-17T05:51:55.238Z,24.63
2018-10-17T05:53:59.673Z,24.63
2018-10-17T05:56:05.871Z,22.00
2018-10-17T05:58:10.861Z,20.83
2018-10-17T06:00:17.471Z,19.63
2018-10-17T06:02:28.891Z,20.43
2018-10-17T06:04:33.597Z,19.57
2018-10-17T06:06:38.187Z,21.07
2018-10-17T06:08:42.508Z,21.67
2018-10-17T06:10:49.242Z,20.43
2018-10-17T06:12:54.519Z,21.47
2018-10-17T06:15:05.844Z,22.77
2018-10-17T06:17:11.935Z,21.30
2018-10-17T06:19:16.750Z,21.43
2018-10-17T06:21:21.151Z,23.17
2018-10-17T06:23:26.660Z,26.37
2018-10-17T06:25:33.229Z,30.67
2018-10-17T06:27:38.315Z,29.93
2018-10-17T06:29:48.551Z,34.90
2018-10-17T06:31:56.880Z,25.87
2018-10-17T06:34:04.559Z,27.33
2018-10-17T06:36:12.872Z,23.93
2018-10-17T06:38:21.347Z,26.60
2018-10-17T06:40:40.562Z,29.27
2018-10-17T06:42:47.743Z,27.40
2018-10-17T06:44:57.307Z,24.47
2018-10-17T06:49:31.622Z,31.60
2018-10-17T06:51:43.978Z,26.30
2018-10-17T06:53:56.317Z,25.70
2018-10-17T06:56:49.908Z,28.90
2018-10-17T06:59:17.309Z,37.77
2018-10-17T07:01:25.260Z,28.13
2018-10-17T07:03:31.668Z,29.53
2018-10-17T07:05:42.787Z,29.73
2018-10-17T07:07:50.360Z,27.23
2018-10-17T07:09:59.335Z,31.40
2018-10-17T07:12:06.586Z,27.63
2018-10-17T07:14:12.941Z,30.83
2018-10-17T07:16:24.953Z,30.90
2018-10-17T07:18:34.891Z,32.43
2018-10-17T07:20:41.762Z,32.27
2018-10-17T07:22:49.285Z,32.87
2018-10-17T07:24:53.686Z,33.90
2018-10-17T07:27:22.785Z,27.13
2018-10-17T07:29:28.592Z,28.67
2018-10-17T07:31:34.352Z,29.37
2018-10-17T07:33:44.168Z,40.43
2018-10-17T07:36:06.590Z,36.23
2018-10-17T07:38:15.721Z,31.07
2018-10-17T07:40:28.582Z,32.60
2018-10-17T07:42:34.549Z,34.63
2018-10-17T07:44:41.976Z,28.97
2018-10-17T07:46:47.644Z,30.13
2018-10-17T07:48:52.120Z,27.43
2018-10-17T07:50:59.109Z,32.33
2018-10-17T07:53:14.027Z,30.63
2018-10-17T07:55:20.299Z,30.93
2018-10-17T07:57:25.046Z,27.13
2018-10-17T07:59:33.541Z,28.80
2018-10-17T08:01:45.831Z,32.27
2018-10-17T08:04:14.757Z,27.20
2018-10-17T08:06:24.216Z,28.63
2018-10-17T08:08:28.687Z,29.03
2018-10-17T08:10:35.185Z,30.97
2018-10-17T08:12:44.935Z,27.77
2018-10-17T08:14:51.051Z,25.80
2018-10-17T08:17:01.469Z,28.07
2018-10-17T08:19:16.072Z,25.23
2018-10-17T08:21:21.529Z,30.43
2018-10-17T08:23:28.557Z,25.87
2018-10-17T08:25:44.205Z,26.63
2018-10-17T08:27:52.147Z,27.37
2018-10-17T08:29:56.571Z,28.10
2018-10-17T08:32:03.708Z,28.17
2018-10-17T08:34:16.432Z,28.40
2018-10-17T08:36:22.196Z,28.30
2018-10-17T08:38:29.840Z,29.17
2018-10-17T08:40:36.891Z,33.50
2018-10-17T08:42:46.067Z,29.50
2018-10-17T08:44:54.854Z,28.10
2018-10-17T08:47:01.326Z,27.27
2018-10-17T08:49:07.837Z,30.53
2018-10-17T08:51:13.335Z,28.23
2018-10-17T08:53:30.357Z,32.87
2018-10-17T08:55:37.166Z,30.60
2018-10-17T08:57:48.862Z,29.70
2018-10-17T08:59:56.738Z,36.90
2018-10-17T09:02:02.121Z,33.13
2018-10-17T09:04:08.206Z,31.03
2018-10-17T09:06:19.789Z,28.43
2018-10-17T09:08:32.472Z,29.17
2018-10-17T09:10:37.528Z,28.97
2018-10-17T09:12:42.891Z,28.10
2018-10-17T09:14:58.188Z,29.30
2018-10-17T09:17:04.437Z,31.07
2018-10-17T09:19:11.982Z,28.40
2018-10-17T09:21:23.442Z,30.57
2018-10-17T09:23:27.615Z,30.93
2018-10-17T09:25:34.168Z,30.47
2018-10-17T09:27:43.362Z,26.67
2018-10-17T09:29:50.727Z,33.13
2018-10-17T09:32:00.287Z,30.63
2018-10-17T09:34:16.052Z,32.67
2018-10-17T09:36:40.635Z,30.77
2018-10-17T09:38:54.111Z,29.83
2018-10-17T09:41:08.961Z,31.30
2018-10-17T09:43:19.362Z,28.60
2018-10-17T09:45:27.512Z,28.80
2018-10-17T09:47:34.455Z,25.03
2018-10-17T09:49:42.220Z,32.93
2018-10-17T09:51:49.061Z,27.93
2018-10-17T09:53:53.931Z,28.70
2018-10-17T09:55:59.402Z,29.27
2018-10-17T09:58:08.747Z,26.77
2018-10-17T10:00:25.385Z,27.00
2018-10-17T10:02:32.799Z,25.07
2018-10-17T10:04:39.728Z,25.43
2018-10-17T10:06:45.901Z,27.67
2018-10-17T10:08:53.463Z,28.07
2018-10-17T10:10:59.989Z,25.80
2018-10-17T10:13:06.955Z,28.33
2018-10-17T10:15:22.301Z,27.63
2018-10-17T10:17:31.637Z,29.87
2018-10-17T10:19:40.313Z,34.53
2018-10-17T10:21:53.299Z,26.37
2018-10-17T10:24:07.002Z,28.60
2018-10-17T10:26:12.961Z,27.93
2018-10-17T10:28:24.670Z,31.67
2018-10-17T10:30:30.552Z,28.27
2018-10-17T10:32:36.054Z,29.87
2018-10-17T10:34:40.530Z,30.03
2018-10-17T10:36:48.692Z,31.47
2018-10-17T10:38:52.956Z,29.13
2018-10-17T10:40:58.243Z,25.30
2018-10-17T10:43:03.502Z,27.43
2018-10-17T10:45:09.324Z,31.73
2018-10-17T10:47:16.503Z,25.07
2018-10-17T10:49:22.141Z,25.47
2018-10-17T10:51:28.121Z,25.83
2018-10-17T10:53:38.830Z,25.17
2018-10-17T10:55:48.962Z,27.13
2018-10-17T10:57:56.937Z,22.57
2018-10-17T11:00:03.612Z,25.57
2018-10-17T11:02:09.760Z,23.40
2018-10-17T11:04:15.844Z,32.20
2018-10-17T11:06:27.426Z,24.03
2018-10-17T11:08:38.743Z,22.17
2018-10-17T11:10:46.080Z,21.37
2018-10-17T11:12:56.413Z,29.13
2018-10-17T11:15:04.233Z,21.53
2018-10-17T11:17:13.128Z,23.03
2018-10-17T11:19:18.795Z,23.10
2018-10-17T11:21:23.570Z,26.00
2018-10-17T11:23:29.197Z,26.90
2018-10-17T11:25:36.463Z,24.63
2018-10-17T11:27:41.016Z,23.23
2018-10-17T11:29:48.601Z,23.60
2018-10-17T11:31:59.558Z,21.73
2018-10-17T11:34:06.482Z,21.73
2018-10-17T11:36:17.804Z,22.13
2018-10-17T11:38:26.178Z,23.17
2018-10-17T11:40:33.650Z,20.33
2018-10-17T11:42:43.430Z,22.63
2018-10-17T11:44:53.237Z,19.97
2018-10-17T11:47:05.143Z,20.47
2018-10-17T11:49:26.702Z,18.93
2018-10-17T11:51:36.449Z,22.87
2018-10-17T11:53:44.840Z,22.43
2018-10-17T11:56:01.982Z,19.97
2018-10-17T11:58:12.334Z,19.70
2018-10-17T12:00:28.466Z,18.37
2018-10-17T12:02:37.381Z,17.95
2018-10-17T12:04:44.386Z,18.07
2018-10-17T12:06:49.796Z,22.17
2018-10-17T12:09:02.633Z,19.03
2018-10-17T12:11:25.888Z,18.73
2018-10-17T12:13:37.363Z,20.33
2018-10-17T12:15:56.795Z,19.57
2018-10-17T12:18:03.765Z,20.37
2018-10-17T12:20:19.398Z,19.63
2018-10-17T12:22:25.575Z,20.23
2018-10-17T12:24:35.671Z,17.77
2018-10-17T12:26:41.935Z,21.83
2018-10-17T12:28:47.231Z,22.20
2018-10-17T12:30:53.051Z,20.72
2018-10-17T12:33:09.122Z,16.35
2018-10-17T12:35:19.568Z,15.63
2018-10-17T12:37:29.271Z,16.43
2018-10-17T12:39:41.004Z,15.50
2018-10-17T12:41:48.388Z,14.57
2018-10-17T12:44:09.633Z,16.57
2018-10-17T12:46:17.226Z,18.77
2018-10-17T12:48:27.522Z,17.62
2018-10-17T12:50:32.992Z,16.55
2018-10-17T12:52:38.088Z,14.85
2018-10-17T12:54:44.520Z,14.47
2018-10-17T12:57:02.005Z,13.78
2018-10-17T12:59:14.667Z,13.75
2018-10-17T13:01:28.766Z,16.60
2018-10-17T13:03:41.901Z,15.98
2018-10-17T13:05:48.251Z,17.00
2018-10-17T13:08:18.665Z,19.50
2018-10-17T13:10:26.374Z,18.35
2018-10-17T13:12:33.787Z,15.07
2018-10-17T13:14:38.564Z,16.10
2018-10-17T13:16:46.425Z,15.53
2018-10-17T13:18:53.984Z,15.72
2018-10-17T13:21:00.456Z,15.43
2018-10-17T13:23:06.979Z,16.37
2018-10-17T13:25:17.277Z,17.57
2018-10-17T13:27:32.900Z,18.90
2018-10-17T13:29:39.331Z,16.15
2018-10-17T13:31:45.120Z,16.77
2018-10-17T13:34:00.414Z,17.87
2018-10-17T13:36:08.825Z,14.80
2018-10-17T13:38:16.607Z,19.35
2018-10-17T13:40:22.467Z,14.60
2018-10-17T13:42:26.998Z,15.47
2018-10-17T13:44:31.788Z,12.53
2018-10-17T13:46:39.881Z,15.65
2018-10-17T13:48:45.714Z,13.83
2018-10-17T13:50:55.091Z,12.80
2018-10-17T13:53:03.525Z,14.23
2018-10-17T13:55:43.027Z,14.43
2018-10-17T14:00:35.102Z,13.00
2018-10-17T14:02:47.729Z,16.03
2018-10-17T14:04:54.350Z,13.83
2018-10-17T14:07:02.407Z,14.23
2018-10-17T14:09:14.148Z,11.48
2018-10-17T14:11:20.364Z,11.93
2018-10-17T14:13:28.334Z,15.25
2018-10-17T14:15:34.608Z,13.73
2018-10-17T14:17:40.317Z,12.23
2018-10-17T14:19:46.599Z,17.23
2018-10-17T14:21:54.314Z,11.20
2018-10-17T14:24:00.227Z,12.30
2018-10-17T14:26:05.567Z,11.78
2018-10-17T14:28:10.886Z,11.13
2018-10-17T14:30:20.124Z,10.72
2018-10-17T14:32:25.385Z,13.80
2018-10-17T14:34:30.915Z,10.53
2018-10-17T14:36:36.391Z,15.83
2018-10-17T14:38:40.817Z,13.55
2018-10-17T14:40:46.901Z,12.13
2018-10-17T14:42:57.605Z,11.35
2018-10-17T14:45:03.324Z,15.57
2018-10-17T14:47:15.165Z,11.05
2018-10-17T14:49:31.462Z,12.07
2018-10-17T14:51:50.542Z,12.20
2018-10-17T14:53:57.396Z,12.03
2018-10-17T14:56:12.417Z,14.33
2018-10-17T14:58:16.914Z,10.03
2018-10-17T15:00:28.317Z,9.30
2018-10-17T15:02:33.722Z,10.15
2018-10-17T15:04:45.517Z,12.60
2018-10-17T15:07:19.501Z,14.50
2018-10-17T15:09:58.745Z,11.30
2018-10-17T15:12:09.091Z,9.23
2018-10-17T15:17:22.517Z,10.38
2018-10-17T15:19:29.624Z,9.18
2018-10-17T15:21:37.920Z,11.40
2018-10-17T15:23:42.434Z,12.50
2018-10-17T15:25:46.813Z,14.78
2018-10-17T15:27:52.705Z,9.93
2018-10-17T15:29:57.296Z,13.93
2018-10-17T15:32:01.737Z,10.30
2018-10-17T15:34:06.003Z,12.20
2018-10-17T15:36:11.151Z,12.97
2018-10-17T15:38:15.962Z,12.63
2018-10-17T15:40:20.882Z,10.85
2018-10-17T15:42:27.548Z,13.87
2018-10-17T15:44:33.621Z,14.60
2018-10-17T15:46:43.241Z,13.37
2018-10-17T15:48:49.540Z,13.87
2018-10-17T15:50:55.823Z,11.97
2018-10-17T15:53:00.145Z,15.63
2018-10-17T15:55:05.988Z,9.78
2018-10-17T15:57:10.963Z,13.37
2018-10-17T15:59:15.099Z,10.83
2018-10-17T16:01:19.519Z,16.53
2018-10-17T16:03:24.401Z,16.13
2018-10-17T16:05:28.811Z,16.83
2018-10-17T16:07:36.962Z,12.07
2018-10-17T16:09:42.697Z,12.67
2018-10-17T16:11:47.165Z,12.30
2018-10-17T16:13:52.681Z,11.87
2018-10-17T16:15:58.909Z,15.23
2018-10-17T16:18:03.641Z,11.93
2018-10-17T16:20:10.747Z,13.03
2018-10-17T16:22:19.682Z,10.97
2018-10-17T16:24:24.831Z,14.33
2018-10-17T16:26:30.230Z,16.40
2018-10-17T16:28:34.523Z,13.90
2018-10-17T16:30:39.023Z,17.47
2018-10-17T16:32:44.279Z,14.60
2018-10-17T16:34:48.579Z,16.30
2018-10-17T16:36:53.696Z,12.80
2018-10-17T16:38:59.551Z,16.13
2018-10-17T16:41:05.934Z,17.33
2018-10-17T16:43:11.906Z,15.90
2018-10-17T16:45:17.644Z,13.03
2018-10-17T16:47:22.976Z,12.23
2018-10-17T16:49:29.071Z,12.97
2018-10-17T16:51:34.927Z,10.67
2018-10-17T16:53:42.825Z,12.93
2018-10-17T16:55:49.988Z,17.53
2018-10-17T16:57:56.159Z,12.63
2018-10-17T17:00:00.375Z,15.00
2018-10-17T17:02:05.188Z,14.07
2018-10-17T17:04:11.167Z,12.23
2018-10-17T17:06:16.653Z,13.10
2018-10-17T17:08:21.824Z,13.13
2018-10-17T17:10:26.322Z,16.50
2018-10-17T17:12:31.404Z,14.47
2018-10-17T17:14:35.690Z,16.97
2018-10-17T17:16:40.826Z,12.63
2018-10-17T17:18:46.335Z,14.90
2018-10-17T17:20:50.843Z,14.90
2018-10-17T17:22:57.801Z,12.00
2018-10-17T17:25:02.826Z,15.23
2018-10-17T17:27:10.879Z,16.43
2018-10-17T17:29:16.526Z,13.10
2018-10-17T17:31:21.210Z,14.10
2018-10-17T17:33:27.783Z,14.20
2018-10-17T17:35:32.055Z,13.77
2018-10-17T17:37:40.029Z,12.17
2018-10-17T17:39:44.363Z,12.07
2018-10-17T17:41:50.826Z,14.37
2018-10-17T17:43:55.165Z,13.27
2018-10-17T17:46:00.348Z,15.50
2018-10-17T17:48:05.047Z,15.90
2018-10-17T17:50:10.039Z,12.87
2018-10-17T17:52:14.391Z,12.43
2018-10-17T17:54:19.096Z,14.97
2018-10-17T17:56:25.729Z,15.20
2018-10-17T17:58:31.259Z,13.23
2018-10-17T18:00:36.950Z,13.37
2018-10-17T18:02:42.735Z,11.47
2018-10-17T18:04:48.334Z,14.90
2018-10-17T18:06:54.540Z,15.97
2018-10-17T18:08:58.897Z,15.63
2018-10-17T18:11:23.989Z,13.73
2018-10-17T18:13:30.150Z,12.50
2018-10-17T18:15:36.052Z,13.17
2018-10-17T18:17:41.656Z,12.57
2018-10-17T18:19:52.246Z,12.53
2018-10-17T18:21:56.567Z,11.47
2018-10-17T18:24:02.370Z,11.80
2018-10-17T18:26:07.742Z,13.27
2018-10-17T18:28:12.858Z,13.37
2018-10-17T18:30:17.381Z,16.50
2018-10-17T18:32:23.456Z,14.10
2018-10-17T18:34:28.452Z,13.13
2018-10-17T18:36:34.128Z,11.83
2018-10-17T18:38:40.690Z,12.17
2018-10-17T18:40:45.200Z,13.60
2018-10-17T18:42:51.395Z,13.50
2018-10-17T18:44:57.600Z,13.83
2018-10-17T18:47:02.270Z,12.47
2018-10-17T18:49:08.021Z,11.43
2018-10-17T18:51:14.820Z,13.47
2018-10-17T18:53:21.289Z,14.67
2018-10-17T18:55:28.507Z,14.97
2018-10-17T18:57:41.209Z,17.20
2018-10-17T18:59:46.363Z,10.17
2018-10-17T19:01:50.938Z,14.20
2018-10-17T19:03:58.586Z,18.60
2018-10-17T19:06:04.455Z,11.33
2018-10-17T19:08:13.811Z,10.20
2018-10-17T19:10:22.963Z,11.83
2018-10-17T19:12:33.195Z,11.77
2018-10-17T19:14:38.608Z,10.07
2018-10-17T19:16:44.773Z,12.30
2018-10-17T19:18:49.298Z,11.83
2018-10-17T19:20:53.623Z,8.93
2018-10-17T19:23:08.564Z,8.87
2018-10-17T19:25:12.945Z,8.97
2018-10-17T19:27:18.232Z,11.67
2018-10-17T19:29:29.276Z,10.67
2018-10-17T19:31:34.868Z,12.57
2018-10-17T19:33:42.366Z,10.70
2018-10-17T19:35:49.238Z,9.33
2018-10-17T19:37:53.576Z,11.53
2018-10-17T19:40:00.541Z,11.53
2018-10-17T19:42:06.763Z,10.50
2018-10-17T19:44:16.217Z,12.27
2018-10-17T19:46:23.151Z,12.73
2018-10-17T19:48:28.737Z,11.13
2018-10-17T19:50:36.306Z,10.97
2018-10-17T19:52:41.797Z,10.67
2018-10-17T19:54:55.114Z,10.97
2018-10-17T19:56:59.499Z,9.77
2018-10-17T20:01:22.653Z,12.33
2018-10-17T20:03:27.965Z,8.93
2018-10-17T20:05:32.448Z,11.47
2018-10-17T20:07:37.310Z,12.80
2018-10-17T20:09:42.546Z,10.33
2018-10-17T20:11:46.880Z,12.03
2018-10-17T20:13:53.205Z,9.83
2018-10-17T20:16:01.768Z,13.03
2018-10-17T20:18:07.811Z,11.43
2018-10-17T20:20:13.635Z,11.70
2018-10-17T20:22:19.730Z,10.80
2018-10-17T20:24:28.314Z,12.20
2018-10-17T20:26:34.605Z,11.53
2018-10-17T20:28:40.604Z,14.17
2018-10-17T20:31:16.421Z,11.53
2018-10-17T20:33:22.684Z,14.13
2018-10-17T20:35:31.669Z,13.77
2018-10-17T20:37:40.590Z,18.43
2018-10-17T20:39:45.373Z,14.53
2018-10-17T20:41:50.800Z,14.90
2018-10-17T20:43:56.821Z,15.97
2018-10-17T20:46:03.154Z,15.63
2018-10-17T20:48:09.126Z,17.00
2018-10-17T20:50:13.866Z,17.13
2018-10-17T20:52:18.681Z,19.77
2018-10-17T20:54:22.969Z,15.53
2018-10-17T20:56:28.282Z,19.47
2018-10-17T20:58:33.087Z,16.63
2018-10-17T21:00:40.460Z,15.97
2018-10-17T21:02:46.425Z,14.50
2018-10-17T21:04:52.972Z,18.90
2018-10-17T21:06:57.516Z,16.87
2018-10-17T21:09:03.361Z,18.30
2018-10-17T21:11:09.214Z,14.93
2018-10-17T21:13:13.600Z,18.60
2018-10-17T21:15:17.850Z,16.23
2018-10-17T21:17:23.861Z,17.50
2018-10-17T21:19:28.774Z,16.67
2018-10-17T21:21:33.847Z,16.03
2018-10-17T21:23:39.605Z,15.90
2018-10-17T21:25:44.963Z,16.13
2018-10-17T21:27:50.720Z,16.13
2018-10-17T21:29:57.321Z,19.27
2018-10-17T21:32:09.668Z,16.17
2018-10-17T21:34:15.398Z,16.90
2018-10-17T21:36:20.406Z,17.37
2018-10-17T21:38:27.051Z,17.40
2018-10-17T21:40:31.523Z,20.33
2018-10-17T21:42:37.333Z,15.93
2018-10-17T21:44:42.068Z,15.70
2018-10-17T21:46:48.105Z,19.37
2018-10-17T21:48:53.653Z,15.17
2018-10-17T21:50:57.833Z,13.70
2018-10-17T21:53:02.133Z,14.47
2018-10-17T21:55:06.748Z,15.60
2018-10-17T21:57:11.155Z,15.80
2018-10-17T21:59:16.124Z,15.47
2018-10-17T22:01:20.886Z,14.67
2018-10-17T22:03:27.772Z,15.53
2018-10-17T22:05:32.047Z,15.13
2018-10-17T22:07:38.583Z,15.40
2018-10-17T22:09:42.973Z,15.67
2018-10-17T22:11:49.237Z,16.03
2018-10-17T22:13:55.514Z,14.30
2018-10-17T22:16:00.780Z,14.30
2018-10-17T22:18:06.065Z,15.47
2018-10-17T22:20:10.738Z,18.30
2018-10-17T22:22:16.435Z,14.50
2018-10-17T22:24:22.441Z,17.83
2018-10-17T22:26:33.470Z,15.20
2018-10-17T22:28:37.711Z,20.30
2018-10-17T22:30:41.913Z,14.83
2018-10-17T22:32:46.558Z,14.47
2018-10-17T22:34:51.806Z,18.17
2018-10-17T22:36:56.387Z,18.67
2018-10-17T22:39:00.953Z,15.07
2018-10-17T22:41:05.156Z,14.90
2018-10-17T22:43:09.380Z,16.27
2018-10-17T22:45:17.580Z,14.93
2018-10-17T22:47:22.466Z,16.20
2018-10-17T22:49:26.641Z,14.20
2018-10-17T22:51:30.900Z,15.60
2018-10-17T22:53:35.036Z,14.10
2018-10-17T22:55:39.912Z,16.37
2018-10-17T22:57:49.318Z,15.23
2018-10-17T22:59:56.247Z,14.80
2018-10-17T23:02:03.671Z,17.90
2018-10-17T23:04:09.244Z,16.40
2018-10-17T23:06:13.384Z,17.37
2018-10-17T23:08:18.001Z,17.67
2018-10-17T23:10:22.499Z,16.67
2018-10-17T23:12:28.101Z,18.83
2018-10-17T23:14:32.322Z,17.10
2018-10-17T23:16:38.424Z,15.93
2018-10-17T23:18:43.522Z,16.63
2018-10-17T23:20:47.774Z,18.63
2018-10-17T23:22:56.548Z,18.30
2018-10-17T23:25:01.424Z,19.07
2018-10-17T23:27:05.587Z,18.60
2018-10-17T23:29:11.118Z,19.77
2018-10-17T23:31:15.230Z,16.67
2018-10-17T23:33:20.556Z,16.90
2018-10-17T23:35:26.080Z,18.77
2018-10-17T23:37:30.168Z,20.70
2018-10-17T23:39:34.403Z,16.87
2018-10-17T23:41:39.190Z,17.17
2018-10-17T23:43:44.279Z,19.97
2018-10-17T23:45:50.053Z,17.50
2018-10-17T23:47:54.509Z,18.50
2018-10-17T23:49:59.551Z,18.40
2018-10-17T23:52:03.893Z,17.27
2018-10-17T23:54:09.072Z,17.43
2018-10-17T23:56:13.299Z,16.60
2018-10-17T23:58:17.530Z,16.93
